createdAt,value
2018-07-15T00:00:34.341Z,15.10
2018-07-15T00:01:34.282Z,15.50
2018-07-15T00:02:34.223Z,15.00
2018-07-15T00:03:34.162Z,14.40
2018-07-15T00:04:34.101Z,14.20
2018-07-15T00:05:34.042Z,16.50
2018-07-15T00:06:33.980Z,14.60
2018-07-15T00:07:33.920Z,14.30
2018-07-15T00:08:33.859Z,14.30
2018-07-15T00:09:33.800Z,15.00
2018-07-15T00:10:33.740Z,13.80
2018-07-15T00:11:33.682Z,14.00
2018-07-15T00:12:33.620Z,13.10
2018-07-15T00:13:33.559Z,14.00
2018-07-15T00:14:33.498Z,13.80
2018-07-15T00:15:33.439Z,14.10
2018-07-15T00:16:33.377Z,13.30
2018-07-15T00:17:33.321Z,14.10
2018-07-15T00:18:33.261Z,13.70
2018-07-15T00:19:33.199Z,13.90
2018-07-15T00:20:33.140Z,14.00
2018-07-15T00:21:33.074Z,13.40
2018-07-15T00:22:33.015Z,14.80
2018-07-15T00:23:32.957Z,14.60
2018-07-15T00:24:32.892Z,14.20
2018-07-15T00:25:32.836Z,14.60
2018-07-15T00:26:32.776Z,14.90
2018-07-15T00:27:32.714Z,13.90
2018-07-15T00:28:32.656Z,15.90
2018-07-15T00:29:32.594Z,14.00
2018-07-15T00:30:32.534Z,14.40
2018-07-15T00:31:32.479Z,13.90
2018-07-15T00:32:32.408Z,13.70
2018-07-15T00:33:32.353Z,14.70
2018-07-15T00:34:32.294Z,15.20
2018-07-15T00:35:32.249Z,16.90
2018-07-15T00:36:32.171Z,16.50
2018-07-15T00:37:32.110Z,16.90
2018-07-15T00:38:32.049Z,17.00
2018-07-15T00:39:31.989Z,16.00
2018-07-15T00:40:31.929Z,16.40
2018-07-15T00:41:31.868Z,16.20
2018-07-15T00:42:31.808Z,14.50
2018-07-15T00:43:31.749Z,16.10
2018-07-15T00:44:31.687Z,14.20
2018-07-15T00:45:31.626Z,14.50
2018-07-15T00:46:31.570Z,14.20
2018-07-15T00:47:31.505Z,13.80
2018-07-15T00:48:31.445Z,13.40
2018-07-15T00:49:31.385Z,13.80
2018-07-15T00:50:31.325Z,14.40
2018-07-15T00:51:31.264Z,12.90
2018-07-15T00:52:31.203Z,13.20
2018-07-15T00:53:31.141Z,13.10
2018-07-15T00:54:31.081Z,12.90
2018-07-15T00:55:31.022Z,12.60
2018-07-15T00:56:30.960Z,14.30
2018-07-15T00:57:30.900Z,14.00
2018-07-15T00:58:30.840Z,12.40
2018-07-15T00:59:30.783Z,14.30
2018-07-15T01:00:30.718Z,12.70
2018-07-15T01:01:30.658Z,12.80
2018-07-15T01:02:30.598Z,13.10
2018-07-15T01:03:30.541Z,13.70
2018-07-15T01:04:30.477Z,14.30
2018-07-15T01:05:30.416Z,15.20
2018-07-15T01:06:30.354Z,15.90
2018-07-15T01:07:30.295Z,15.50
2018-07-15T01:08:30.233Z,15.10
2018-07-15T01:09:30.173Z,15.00
2018-07-15T01:10:30.109Z,17.00
2018-07-15T01:11:30.053Z,16.50
2018-07-15T01:12:29.990Z,17.10
2018-07-15T01:13:29.938Z,15.30
2018-07-15T01:14:29.872Z,16.60
2018-07-15T01:15:29.810Z,15.50
2018-07-15T01:16:29.753Z,16.70
2018-07-15T01:17:29.690Z,14.90
2018-07-15T01:18:29.628Z,15.10
2018-07-15T01:19:29.569Z,14.80
2018-07-15T01:20:29.505Z,15.70
2018-07-15T01:21:29.445Z,15.60
2018-07-15T01:22:29.388Z,15.60
2018-07-15T01:23:29.326Z,16.00
2018-07-15T01:24:29.263Z,15.70
2018-07-15T01:25:29.207Z,16.00
2018-07-15T01:26:29.147Z,16.60
2018-07-15T01:27:29.082Z,16.90
2018-07-15T01:28:29.019Z,17.80
2018-07-15T01:29:28.960Z,18.40
2018-07-15T01:30:28.900Z,20.50
2018-07-15T01:31:28.840Z,17.30
2018-07-15T01:32:28.779Z,18.00
2018-07-15T01:33:28.717Z,17.90
2018-07-15T01:34:28.658Z,17.70
2018-07-15T01:35:28.606Z,16.80
2018-07-15T01:36:28.536Z,17.80
2018-07-15T01:37:28.479Z,17.10
2018-07-15T01:38:28.416Z,17.00
2018-07-15T01:39:28.353Z,16.50
2018-07-15T01:40:28.294Z,16.80
2018-07-15T01:41:28.248Z,16.80
2018-07-15T01:42:28.171Z,17.00
2018-07-15T01:43:28.112Z,16.60
2018-07-15T01:44:28.052Z,16.70
2018-07-15T01:45:27.990Z,17.40
2018-07-15T01:46:27.931Z,18.10
2018-07-15T01:47:27.874Z,17.00
2018-07-15T01:48:27.807Z,17.10
2018-07-15T01:49:27.747Z,17.20
2018-07-15T01:50:27.694Z,16.10
2018-07-15T01:51:27.623Z,16.10
2018-07-15T01:52:27.568Z,15.90
2018-07-15T01:53:27.504Z,15.40
2018-07-15T01:54:27.438Z,14.50
2018-07-15T01:55:27.381Z,14.50
2018-07-15T01:56:27.334Z,13.40
2018-07-15T01:57:27.261Z,13.60
2018-07-15T01:58:27.202Z,12.70
2018-07-15T01:59:27.137Z,12.80
2018-07-15T02:00:27.074Z,13.70
2018-07-15T02:01:27.016Z,13.70
2018-07-15T02:02:26.956Z,13.80
2018-07-15T02:03:26.899Z,13.50
2018-07-15T02:04:26.838Z,13.70
2018-07-15T02:05:26.776Z,13.50
2018-07-15T02:06:26.712Z,13.40
2018-07-15T02:07:26.653Z,12.90
2018-07-15T02:08:26.592Z,13.40
2018-07-15T02:09:26.535Z,12.50
2018-07-15T02:10:26.472Z,13.30
2018-07-15T02:11:26.418Z,11.90
2018-07-15T02:12:26.348Z,12.00
2018-07-15T02:13:26.289Z,12.70
2018-07-15T02:14:26.231Z,11.90
2018-07-15T02:15:26.169Z,11.00
2018-07-15T02:16:26.106Z,10.80
2018-07-15T02:17:26.046Z,11.40
2018-07-15T02:18:25.987Z,11.30
2018-07-15T02:19:25.926Z,11.90
2018-07-15T02:20:25.864Z,11.80
2018-07-15T02:21:25.804Z,11.90
2018-07-15T02:22:25.744Z,12.40
2018-07-15T02:23:25.685Z,11.90
2018-07-15T02:24:25.624Z,11.40
2018-07-15T02:25:25.561Z,11.40
2018-07-15T02:26:25.500Z,11.20
2018-07-15T02:27:25.445Z,11.50
2018-07-15T02:28:25.379Z,10.70
2018-07-15T02:29:25.318Z,11.70
2018-07-15T02:30:25.259Z,11.10
2018-07-15T02:31:25.199Z,11.00
2018-07-15T02:32:25.136Z,10.90
2018-07-15T02:33:25.075Z,11.50
2018-07-15T02:34:25.016Z,10.60
2018-07-15T02:35:24.954Z,10.40
2018-07-15T02:36:24.893Z,11.10
2018-07-15T02:37:24.834Z,11.30
2018-07-15T02:38:24.773Z,11.10
2018-07-15T02:39:24.710Z,12.00
2018-07-15T02:40:24.650Z,11.30
2018-07-15T02:41:24.588Z,10.90
2018-07-15T02:42:24.529Z,11.00
2018-07-15T02:43:24.469Z,11.00
2018-07-15T02:44:24.408Z,10.70
2018-07-15T02:45:24.352Z,10.50
2018-07-15T02:46:24.291Z,11.10
2018-07-15T02:47:24.224Z,10.50
2018-07-15T02:48:24.165Z,11.10
2018-07-15T02:49:24.110Z,10.40
2018-07-15T02:50:24.043Z,10.90
2018-07-15T02:51:23.988Z,10.60
2018-07-15T02:52:23.925Z,10.70
2018-07-15T02:53:23.872Z,11.00
2018-07-15T02:54:23.801Z,11.60
2018-07-15T02:55:23.739Z,10.30
2018-07-15T02:56:23.679Z,11.40
2018-07-15T02:57:23.621Z,10.70
2018-07-15T02:58:23.558Z,11.50
2018-07-15T02:59:23.498Z,11.90
2018-07-15T03:00:23.437Z,10.70
2018-07-15T03:01:23.376Z,10.90
2018-07-15T03:02:23.318Z,10.20
2018-07-15T03:03:23.253Z,11.30
2018-07-15T03:04:23.193Z,10.70
2018-07-15T03:05:23.135Z,10.60
2018-07-15T03:06:23.072Z,10.20
2018-07-15T03:07:23.026Z,10.80
2018-07-15T03:08:22.950Z,10.10
2018-07-15T03:09:22.887Z,10.70
2018-07-15T03:10:22.832Z,11.10
2018-07-15T03:11:22.770Z,11.00
2018-07-15T03:12:22.702Z,11.00
2018-07-15T03:13:22.648Z,11.30
2018-07-15T03:14:22.585Z,10.80
2018-07-15T03:15:22.526Z,10.70
2018-07-15T03:16:22.465Z,12.40
2018-07-15T03:17:22.444Z,11.90
2018-07-15T03:18:22.343Z,11.60
2018-07-15T03:19:22.284Z,11.10
2018-07-15T03:20:22.227Z,11.60
2018-07-15T03:21:22.164Z,11.30
2018-07-15T03:22:22.113Z,10.70
2018-07-15T03:23:22.091Z,11.00
2018-07-15T03:24:22.023Z,10.40
2018-07-15T03:25:21.917Z,12.40
2018-07-15T03:26:21.854Z,10.80
2018-07-15T03:27:21.799Z,10.80
2018-07-15T03:28:21.732Z,10.80
2018-07-15T03:29:21.673Z,10.70
2018-07-15T03:30:21.612Z,10.20
2018-07-15T03:31:21.552Z,10.00
2018-07-15T03:32:21.491Z,10.00
2018-07-15T03:33:21.431Z,9.80
2018-07-15T03:34:21.370Z,10.00
2018-07-15T03:35:21.313Z,10.40
2018-07-15T03:36:21.249Z,10.00
2018-07-15T03:37:21.187Z,9.70
2018-07-15T03:38:21.126Z,10.00
2018-07-15T03:39:21.066Z,10.00
2018-07-15T03:40:21.004Z,10.40
2018-07-15T03:41:20.945Z,10.40
2018-07-15T03:42:20.884Z,10.40
2018-07-15T03:43:20.822Z,10.80
2018-07-15T03:44:20.761Z,10.00
2018-07-15T03:45:20.703Z,9.90
2018-07-15T03:46:20.638Z,9.60
2018-07-15T03:47:20.580Z,10.20
2018-07-15T03:48:20.518Z,10.00
2018-07-15T03:49:20.455Z,9.50
2018-07-15T03:50:20.399Z,9.40
2018-07-15T03:51:20.337Z,10.10
2018-07-15T03:52:20.276Z,9.80
2018-07-15T03:53:20.221Z,10.20
2018-07-15T03:54:20.159Z,10.10
2018-07-15T03:55:20.096Z,10.40
2018-07-15T03:56:20.036Z,10.70
2018-07-15T03:57:19.972Z,9.90
2018-07-15T03:58:19.912Z,10.50
2018-07-15T03:59:19.851Z,10.10
2018-07-15T04:00:19.800Z,10.10
2018-07-15T04:01:19.731Z,11.00
2018-07-15T04:02:19.668Z,10.40
2018-07-15T04:03:19.610Z,10.70
2018-07-15T04:04:19.555Z,10.80
2018-07-15T04:05:19.487Z,10.40
2018-07-15T04:06:19.427Z,12.30
2018-07-15T04:07:19.365Z,11.40
2018-07-15T04:08:19.303Z,10.90
2018-07-15T04:09:19.243Z,11.20
2018-07-15T04:10:19.184Z,10.90
2018-07-15T04:11:19.121Z,11.70
2018-07-15T04:12:19.058Z,10.80
2018-07-15T04:13:19.000Z,11.30
2018-07-15T04:14:18.939Z,11.00
2018-07-15T04:15:18.879Z,11.70
2018-07-15T04:16:18.816Z,10.80
2018-07-15T04:17:18.755Z,10.60
2018-07-15T04:18:18.695Z,10.60
2018-07-15T04:19:18.635Z,10.20
2018-07-15T04:20:18.574Z,9.70
2018-07-15T04:21:18.511Z,10.00
2018-07-15T04:22:18.452Z,10.50
2018-07-15T04:23:18.393Z,10.80
2018-07-15T04:24:18.332Z,9.60
2018-07-15T04:25:18.273Z,9.80
2018-07-15T04:26:18.212Z,10.50
2018-07-15T04:27:18.156Z,10.70
2018-07-15T04:28:18.159Z,10.20
2018-07-15T04:29:18.031Z,11.20
2018-07-15T04:30:17.964Z,10.30
2018-07-15T04:31:17.907Z,10.50
2018-07-15T04:32:17.846Z,10.00
2018-07-15T04:33:17.782Z,10.70
2018-07-15T04:34:17.725Z,10.60
2018-07-15T04:35:17.667Z,10.80
2018-07-15T04:36:17.601Z,11.00
2018-07-15T04:37:17.545Z,10.90
2018-07-15T04:38:17.481Z,11.30
2018-07-15T04:39:17.422Z,11.10
2018-07-15T04:40:17.360Z,11.40
2018-07-15T04:41:17.298Z,11.20
2018-07-15T04:42:17.241Z,10.20
2018-07-15T04:43:17.184Z,10.20
2018-07-15T04:44:17.119Z,11.10
2018-07-15T04:45:17.056Z,11.30
2018-07-15T04:46:17.001Z,11.20
2018-07-15T04:47:16.938Z,11.10
2018-07-15T04:48:16.875Z,11.20
2018-07-15T04:49:16.814Z,11.90
2018-07-15T04:50:16.754Z,11.40
2018-07-15T04:51:16.694Z,11.50
2018-07-15T04:52:16.634Z,11.50
2018-07-15T04:53:16.572Z,12.10
2018-07-15T04:54:16.512Z,10.90
2018-07-15T04:55:16.451Z,11.00
2018-07-15T04:56:16.395Z,11.60
2018-07-15T04:57:16.333Z,11.40
2018-07-15T04:58:16.269Z,11.00
2018-07-15T04:59:16.218Z,11.60
2018-07-15T05:00:16.151Z,11.00
2018-07-15T05:01:16.088Z,11.70
2018-07-15T05:02:16.030Z,10.30
2018-07-15T05:03:15.966Z,11.40
2018-07-15T05:04:15.906Z,12.00
2018-07-15T05:05:15.845Z,11.00
2018-07-15T05:06:15.786Z,11.50
2018-07-15T05:07:15.727Z,11.10
2018-07-15T05:08:15.667Z,11.10
2018-07-15T05:09:15.606Z,11.30
2018-07-15T05:10:15.548Z,11.30
2018-07-15T05:11:15.505Z,11.10
2018-07-15T05:12:15.428Z,11.10
2018-07-15T05:13:15.376Z,11.60
2018-07-15T05:14:15.303Z,11.10
2018-07-15T05:15:15.244Z,11.10
2018-07-15T05:16:15.192Z,10.40
2018-07-15T05:17:15.125Z,11.40
2018-07-15T05:18:15.069Z,11.40
2018-07-15T05:19:15.005Z,11.00
2018-07-15T05:20:14.944Z,11.30
2018-07-15T05:21:14.883Z,10.70
2018-07-15T05:22:14.823Z,10.70
2018-07-15T05:23:14.766Z,10.50
2018-07-15T05:24:14.704Z,11.00
2018-07-15T05:25:14.643Z,10.70
2018-07-15T05:26:14.585Z,11.10
2018-07-15T05:27:14.524Z,11.60
2018-07-15T05:28:14.465Z,10.70
2018-07-15T05:29:14.406Z,11.20
2018-07-15T05:30:14.346Z,11.10
2018-07-15T05:31:14.288Z,11.70
2018-07-15T05:32:14.227Z,10.60
2018-07-15T05:33:14.166Z,10.60
2018-07-15T05:34:14.106Z,10.70
2018-07-15T05:35:14.047Z,11.30
2018-07-15T05:36:13.986Z,11.50
2018-07-15T05:37:13.929Z,10.00
2018-07-15T05:38:13.865Z,11.10
2018-07-15T05:39:13.805Z,9.90
2018-07-15T05:40:13.745Z,10.30
2018-07-15T05:41:13.686Z,10.30
2018-07-15T05:42:13.628Z,10.10
2018-07-15T05:43:13.561Z,9.70
2018-07-15T05:44:13.511Z,10.30
2018-07-15T05:45:13.446Z,10.20
2018-07-15T05:46:13.389Z,9.70
2018-07-15T05:47:13.327Z,10.30
2018-07-15T05:48:13.269Z,9.90
2018-07-15T05:49:13.207Z,9.60
2018-07-15T05:50:13.147Z,9.40
2018-07-15T05:51:13.090Z,10.80
2018-07-15T05:52:13.028Z,8.90
2018-07-15T05:53:12.968Z,9.90
2018-07-15T05:54:12.911Z,9.80
2018-07-15T05:55:12.850Z,9.90
2018-07-15T05:56:12.791Z,8.70
2018-07-15T05:57:12.731Z,9.60
2018-07-15T05:58:12.674Z,9.60
2018-07-15T05:59:12.613Z,11.10
2018-07-15T06:00:12.550Z,8.80
2018-07-15T06:01:12.492Z,9.20
2018-07-15T06:02:12.442Z,9.10
2018-07-15T06:03:12.375Z,9.10
2018-07-15T06:04:12.315Z,9.70
2018-07-15T06:05:12.254Z,9.50
2018-07-15T06:06:12.196Z,9.00
2018-07-15T06:07:12.136Z,10.00
2018-07-15T06:08:12.076Z,9.00
2018-07-15T06:09:12.018Z,9.00
2018-07-15T06:10:11.960Z,9.40
2018-07-15T06:11:11.990Z,9.40
2018-07-15T06:12:11.842Z,10.70
2018-07-15T06:13:11.780Z,11.00
2018-07-15T06:14:11.721Z,10.00
2018-07-15T06:15:11.663Z,9.80
2018-07-15T06:16:11.603Z,10.90
2018-07-15T06:17:11.641Z,9.50
2018-07-15T06:18:11.484Z,11.00
2018-07-15T06:19:11.502Z,9.60
2018-07-15T06:20:11.367Z,9.80
2018-07-15T06:21:11.307Z,9.50
2018-07-15T06:22:11.250Z,9.30
2018-07-15T06:23:11.190Z,9.60
2018-07-15T06:24:11.131Z,9.80
2018-07-15T06:25:11.072Z,9.30
2018-07-15T06:26:11.013Z,9.70
2018-07-15T06:27:10.953Z,9.70
2018-07-15T06:28:10.894Z,9.50
2018-07-15T06:29:10.835Z,9.90
2018-07-15T06:30:10.776Z,9.70
2018-07-15T06:31:10.721Z,9.90
2018-07-15T06:32:10.657Z,9.10
2018-07-15T06:33:10.604Z,9.60
2018-07-15T06:34:10.541Z,9.80
2018-07-15T06:35:10.483Z,9.80
2018-07-15T06:36:10.458Z,8.60
2018-07-15T06:37:10.367Z,9.30
2018-07-15T06:38:10.307Z,9.00
2018-07-15T06:39:10.245Z,9.10
2018-07-15T06:40:10.189Z,9.20
2018-07-15T06:41:10.132Z,8.50
2018-07-15T06:42:10.069Z,8.50
2018-07-15T06:43:10.012Z,8.30
2018-07-15T06:44:09.952Z,8.20
2018-07-15T06:45:09.893Z,8.40
2018-07-15T06:46:09.834Z,7.80
2018-07-15T06:47:09.776Z,8.90
2018-07-15T06:48:09.716Z,8.10
2018-07-15T06:49:09.717Z,7.90
2018-07-15T06:50:09.601Z,8.00
2018-07-15T06:51:09.544Z,7.20
2018-07-15T06:52:09.484Z,6.50
2018-07-15T06:53:09.422Z,7.30
2018-07-15T06:54:09.367Z,6.60
2018-07-15T06:55:09.307Z,6.50
2018-07-15T06:56:09.247Z,6.70
2018-07-15T06:57:09.189Z,6.30
2018-07-15T06:58:09.132Z,6.50
2018-07-15T06:59:09.075Z,6.40
2018-07-15T07:00:09.017Z,5.80
2018-07-15T07:01:08.956Z,6.50
2018-07-15T07:02:08.898Z,6.10
2018-07-15T07:03:08.842Z,5.90
2018-07-15T07:04:08.786Z,6.60
2018-07-15T07:05:08.722Z,5.90
2018-07-15T07:06:08.664Z,5.70
2018-07-15T07:07:08.609Z,6.20
2018-07-15T07:08:08.549Z,5.70
2018-07-15T07:09:08.490Z,5.80
2018-07-15T07:10:08.434Z,6.00
2018-07-15T07:11:08.376Z,6.00
2018-07-15T07:12:08.315Z,5.80
2018-07-15T07:13:08.258Z,5.30
2018-07-15T07:14:08.247Z,5.80
2018-07-15T07:15:08.149Z,5.30
2018-07-15T07:16:08.082Z,6.40
2018-07-15T07:17:08.024Z,6.60
2018-07-15T07:18:07.967Z,6.10
2018-07-15T07:19:07.908Z,6.10
2018-07-15T07:20:07.851Z,6.10
2018-07-15T07:21:07.794Z,5.70
2018-07-15T07:22:07.736Z,5.90
2018-07-15T07:23:07.681Z,6.10
2018-07-15T07:24:07.619Z,5.90
2018-07-15T07:25:07.562Z,5.90
2018-07-15T07:26:07.504Z,6.00
2018-07-15T07:27:07.471Z,6.00
2018-07-15T07:28:07.398Z,5.70
2018-07-15T07:29:07.331Z,6.00
2018-07-15T07:30:07.275Z,5.60
2018-07-15T07:31:07.217Z,5.30
2018-07-15T07:32:07.157Z,5.80
2018-07-15T07:33:07.103Z,5.70
2018-07-15T07:34:07.042Z,5.40
2018-07-15T07:35:06.984Z,5.90
2018-07-15T07:36:06.927Z,6.00
2018-07-15T07:37:06.868Z,5.40
2018-07-15T07:38:06.813Z,5.60
2018-07-15T07:39:06.755Z,5.60
2018-07-15T07:40:06.693Z,5.80
2018-07-15T07:41:06.643Z,5.60
2018-07-15T07:42:06.583Z,5.50
2018-07-15T07:43:06.525Z,5.70
2018-07-15T07:44:06.465Z,5.80
2018-07-15T07:45:06.411Z,5.80
2018-07-15T07:46:06.352Z,5.70
2018-07-15T07:47:06.297Z,5.60
2018-07-15T07:48:06.237Z,5.50
2018-07-15T07:49:06.184Z,5.30
2018-07-15T07:50:06.128Z,5.70
2018-07-15T07:51:06.066Z,6.00
2018-07-15T07:52:06.008Z,5.40
2018-07-15T07:53:05.950Z,5.20
2018-07-15T07:54:05.894Z,4.90
2018-07-15T07:55:05.836Z,5.10
2018-07-15T07:56:05.778Z,5.00
2018-07-15T07:57:05.724Z,5.20
2018-07-15T07:58:05.665Z,5.00
2018-07-15T07:59:05.608Z,5.20
2018-07-15T08:00:05.553Z,5.60
2018-07-15T08:01:05.497Z,5.50
2018-07-15T08:02:05.503Z,4.90
2018-07-15T08:03:05.382Z,5.50
2018-07-15T08:04:05.323Z,5.30
2018-07-15T08:05:05.266Z,5.50
2018-07-15T08:06:05.211Z,5.20
2018-07-15T08:07:05.154Z,5.80
2018-07-15T08:08:05.094Z,5.80
2018-07-15T08:09:05.038Z,5.80
2018-07-15T08:10:04.983Z,5.60
2018-07-15T08:11:04.926Z,5.20
2018-07-15T08:12:04.868Z,5.40
2018-07-15T08:13:04.807Z,5.30
2018-07-15T08:14:04.762Z,5.50
2018-07-15T08:15:04.698Z,5.30
2018-07-15T08:16:04.640Z,5.80
2018-07-15T08:17:04.586Z,5.20
2018-07-15T08:18:04.526Z,5.20
2018-07-15T08:19:04.471Z,5.60
2018-07-15T08:20:04.411Z,5.40
2018-07-15T08:21:04.357Z,5.70
2018-07-15T08:22:04.299Z,5.00
2018-07-15T08:23:04.249Z,5.10
2018-07-15T08:24:04.190Z,5.20
2018-07-15T08:25:04.130Z,5.80
2018-07-15T08:26:04.078Z,5.50
2018-07-15T08:27:04.014Z,5.70
2018-07-15T08:28:04.003Z,4.70
2018-07-15T08:29:03.909Z,5.20
2018-07-15T08:30:03.847Z,5.10
2018-07-15T08:31:03.792Z,4.70
2018-07-15T08:32:03.733Z,5.50
2018-07-15T08:33:03.679Z,5.20
2018-07-15T08:34:03.620Z,5.40
2018-07-15T08:35:03.564Z,5.30
2018-07-15T08:36:03.509Z,5.10
2018-07-15T08:37:03.451Z,4.70
2018-07-15T08:38:03.395Z,5.20
2018-07-15T08:39:03.353Z,5.10
2018-07-15T08:40:03.282Z,4.90
2018-07-15T08:41:03.226Z,5.10
2018-07-15T08:42:03.171Z,5.40
2018-07-15T08:43:03.116Z,5.20
2018-07-15T08:44:03.058Z,5.50
2018-07-15T08:45:03.004Z,5.10
2018-07-15T08:46:03.054Z,4.90
2018-07-15T08:47:02.888Z,4.50
2018-07-15T08:48:02.838Z,5.00
2018-07-15T08:49:02.776Z,4.90
2018-07-15T08:50:02.726Z,4.90
2018-07-15T08:51:02.665Z,4.60
2018-07-15T08:52:02.609Z,4.90
2018-07-15T08:53:02.551Z,4.80
2018-07-15T08:54:02.496Z,4.70
2018-07-15T08:55:02.439Z,4.70
2018-07-15T08:56:02.381Z,5.90
2018-07-15T08:57:02.326Z,4.70
2018-07-15T08:58:02.271Z,5.30
2018-07-15T08:59:02.214Z,4.70
2018-07-15T09:00:02.159Z,5.00
2018-07-15T09:01:02.146Z,4.80
2018-07-15T09:02:02.048Z,4.80
2018-07-15T09:03:01.996Z,5.10
2018-07-15T09:04:01.940Z,5.30
2018-07-15T09:05:01.880Z,5.00
2018-07-15T09:06:01.827Z,5.20
2018-07-15T09:07:01.764Z,5.30
2018-07-15T09:08:01.711Z,5.30
2018-07-15T09:09:01.655Z,5.80
2018-07-15T09:10:01.601Z,5.10
2018-07-15T09:11:01.545Z,5.20
2018-07-15T09:12:01.490Z,5.20
2018-07-15T09:13:01.433Z,5.10
2018-07-15T09:14:01.376Z,5.10
2018-07-15T09:15:01.323Z,5.40
2018-07-15T09:16:01.265Z,5.10
2018-07-15T09:17:01.209Z,4.90
2018-07-15T09:18:01.154Z,4.60
2018-07-15T09:19:01.102Z,5.20
2018-07-15T09:20:01.043Z,5.30
2018-07-15T09:21:00.986Z,5.40
2018-07-15T09:22:00.931Z,5.20
2018-07-15T09:23:00.877Z,5.00
2018-07-15T09:24:00.819Z,5.00
2018-07-15T09:25:00.765Z,5.40
2018-07-15T09:26:00.708Z,5.00
2018-07-15T09:27:00.655Z,5.10
2018-07-15T09:28:00.691Z,4.90
2018-07-15T09:29:00.546Z,4.90
2018-07-15T09:30:00.505Z,5.10
2018-07-15T09:31:00.435Z,5.00
2018-07-15T09:32:00.378Z,5.20
2018-07-15T09:33:00.324Z,5.20
2018-07-15T09:34:00.269Z,4.90
2018-07-15T09:35:00.215Z,5.00
2018-07-15T09:36:00.161Z,5.50
2018-07-15T09:37:00.106Z,5.00
2018-07-15T09:38:00.054Z,5.00
2018-07-15T09:39:00.008Z,5.00
2018-07-15T09:39:59.946Z,4.80
2018-07-15T09:40:59.898Z,5.10
2018-07-15T09:41:59.843Z,4.70
2018-07-15T09:42:59.792Z,4.80
2018-07-15T09:43:59.739Z,4.60
2018-07-15T09:44:59.687Z,5.10
2018-07-15T09:45:59.640Z,5.10
2018-07-15T09:46:59.581Z,4.40
2018-07-15T09:47:59.534Z,5.00
2018-07-15T09:48:59.484Z,4.70
2018-07-15T09:49:59.434Z,4.70
2018-07-15T09:50:59.384Z,5.30
2018-07-15T09:51:59.335Z,4.60
2018-07-15T09:52:59.286Z,4.70
2018-07-15T09:53:59.236Z,4.60
2018-07-15T09:54:59.187Z,4.20
2018-07-15T09:55:59.141Z,4.50
2018-07-15T09:56:59.089Z,4.40
2018-07-15T09:57:59.039Z,3.90
2018-07-15T09:58:58.990Z,4.20
2018-07-15T09:59:58.940Z,4.40
2018-07-15T10:00:58.890Z,4.70
2018-07-15T10:01:58.839Z,4.70
2018-07-15T10:02:58.790Z,4.40
2018-07-15T10:03:58.740Z,4.70
2018-07-15T10:04:58.689Z,5.50
2018-07-15T10:05:58.638Z,4.60
2018-07-15T10:06:58.586Z,4.30
2018-07-15T10:07:58.534Z,4.30
2018-07-15T10:08:58.483Z,4.70
2018-07-15T10:09:58.431Z,5.00
2018-07-15T10:10:58.386Z,4.70
2018-07-15T10:11:58.329Z,4.80
2018-07-15T10:12:58.276Z,4.40
2018-07-15T10:13:58.237Z,4.50
2018-07-15T10:14:58.171Z,4.80
2018-07-15T10:15:58.119Z,5.00
2018-07-15T10:16:58.067Z,4.70
2018-07-15T10:17:58.019Z,4.70
2018-07-15T10:18:57.986Z,4.60
2018-07-15T10:19:57.913Z,4.60
2018-07-15T10:20:57.860Z,4.70
2018-07-15T10:21:57.812Z,5.40
2018-07-15T10:22:57.761Z,4.50
2018-07-15T10:23:57.710Z,5.00
2018-07-15T10:24:57.661Z,4.20
2018-07-15T10:25:57.610Z,4.50
2018-07-15T10:26:57.561Z,4.40
2018-07-15T10:27:57.509Z,4.70
2018-07-15T10:28:57.460Z,4.60
2018-07-15T10:29:57.409Z,4.70
2018-07-15T10:30:57.360Z,4.20
2018-07-15T10:31:57.311Z,4.50
2018-07-15T10:32:57.261Z,4.20
2018-07-15T10:33:57.218Z,4.80
2018-07-15T10:34:57.164Z,4.40
2018-07-15T10:35:57.114Z,5.20
2018-07-15T10:36:57.066Z,4.10
2018-07-15T10:37:57.018Z,3.90
2018-07-15T10:38:56.980Z,3.80
2018-07-15T10:39:56.917Z,4.00
2018-07-15T10:40:56.868Z,4.40
2018-07-15T10:41:56.822Z,4.00
2018-07-15T10:42:56.771Z,3.90
2018-07-15T10:43:56.720Z,3.80
2018-07-15T10:44:56.669Z,4.90
2018-07-15T10:45:56.621Z,4.60
2018-07-15T10:46:56.568Z,3.70
2018-07-15T10:47:56.518Z,4.20
2018-07-15T10:48:56.468Z,3.90
2018-07-15T10:49:56.417Z,4.10
2018-07-15T10:50:56.370Z,4.20
2018-07-15T10:51:56.314Z,4.40
2018-07-15T10:52:56.295Z,4.00
2018-07-15T10:53:56.210Z,4.20
2018-07-15T10:54:56.160Z,3.90
2018-07-15T10:55:56.106Z,4.20
2018-07-15T10:56:56.054Z,5.40
2018-07-15T10:57:56.003Z,4.60
2018-07-15T10:58:55.950Z,4.60
2018-07-15T10:59:55.896Z,4.80
2018-07-15T11:00:55.854Z,4.30
2018-07-15T11:01:55.794Z,4.70
2018-07-15T11:02:55.741Z,4.30
2018-07-15T11:03:55.689Z,4.40
2018-07-15T11:04:55.638Z,4.50
2018-07-15T11:05:55.587Z,4.40
2018-07-15T11:06:55.529Z,4.50
2018-07-15T11:07:55.483Z,4.20
2018-07-15T11:08:55.430Z,4.40
2018-07-15T11:09:55.376Z,4.50
2018-07-15T11:10:55.325Z,4.70
2018-07-15T11:11:55.272Z,4.40
2018-07-15T11:12:55.239Z,4.50
2018-07-15T11:13:55.183Z,4.60
2018-07-15T11:14:55.121Z,4.60
2018-07-15T11:15:55.086Z,4.70
2018-07-15T11:16:55.015Z,4.50
2018-07-15T11:17:54.953Z,4.60
2018-07-15T11:18:54.901Z,4.50
2018-07-15T11:19:54.845Z,5.00
2018-07-15T11:20:54.793Z,4.40
2018-07-15T11:21:54.742Z,4.60
2018-07-15T11:22:54.687Z,4.80
2018-07-15T11:23:54.633Z,4.60
2018-07-15T11:24:54.578Z,4.50
2018-07-15T11:25:54.524Z,4.80
2018-07-15T11:26:54.470Z,4.40
2018-07-15T11:27:54.416Z,4.70
2018-07-15T11:28:54.364Z,4.40
2018-07-15T11:29:54.311Z,4.30
2018-07-15T11:30:54.301Z,4.50
2018-07-15T11:31:54.205Z,4.50
2018-07-15T11:32:54.149Z,4.40
2018-07-15T11:33:54.095Z,4.70
2018-07-15T11:34:54.039Z,5.40
2018-07-15T11:35:53.986Z,4.40
2018-07-15T11:36:53.931Z,4.80
2018-07-15T11:37:53.877Z,4.40
2018-07-15T11:38:53.827Z,4.60
2018-07-15T11:39:53.768Z,5.20
2018-07-15T11:40:53.713Z,6.00
2018-07-15T11:41:53.661Z,4.50
2018-07-15T11:42:53.607Z,4.70
2018-07-15T11:43:53.551Z,4.40
2018-07-15T11:44:53.495Z,5.00
2018-07-15T11:45:53.442Z,4.50
2018-07-15T11:46:53.386Z,4.10
2018-07-15T11:47:53.331Z,4.80
2018-07-15T11:48:53.279Z,6.00
2018-07-15T11:49:53.223Z,4.50
2018-07-15T11:50:53.169Z,4.50
2018-07-15T11:51:53.114Z,4.50
2018-07-15T11:52:53.060Z,4.50
2018-07-15T11:53:53.006Z,4.70
2018-07-15T11:54:52.949Z,4.80
2018-07-15T11:55:52.898Z,4.80
2018-07-15T11:56:52.843Z,4.70
2018-07-15T11:57:52.786Z,4.60
2018-07-15T11:58:52.731Z,4.80
2018-07-15T11:59:52.675Z,4.70
2018-07-15T12:00:52.619Z,4.80
2018-07-15T12:01:52.568Z,4.80
2018-07-15T12:02:52.512Z,5.20
2018-07-15T12:03:52.455Z,5.30
2018-07-15T12:04:52.401Z,4.90
2018-07-15T12:05:52.345Z,6.80
2018-07-15T12:06:52.292Z,5.00
2018-07-15T12:07:52.236Z,5.90
2018-07-15T12:08:52.179Z,5.20
2018-07-15T12:09:52.125Z,5.10
2018-07-15T12:10:52.069Z,4.70
2018-07-15T12:11:52.014Z,4.70
2018-07-15T12:12:51.963Z,5.40
2018-07-15T12:13:51.904Z,5.20
2018-07-15T12:14:51.852Z,5.00
2018-07-15T12:15:51.793Z,5.40
2018-07-15T12:16:51.740Z,5.00
2018-07-15T12:17:51.683Z,5.00
2018-07-15T12:18:51.629Z,4.70
2018-07-15T12:19:51.574Z,4.70
2018-07-15T12:20:51.519Z,4.70
2018-07-15T12:21:51.464Z,4.50
2018-07-15T12:22:51.409Z,4.50
2018-07-15T12:23:51.353Z,4.90
2018-07-15T12:24:51.296Z,4.20
2018-07-15T12:25:51.241Z,5.80
2018-07-15T12:26:51.188Z,4.40
2018-07-15T12:27:51.135Z,5.50
2018-07-15T12:28:51.077Z,5.00
2018-07-15T12:29:51.022Z,5.40
2018-07-15T12:30:50.970Z,6.60
2018-07-15T12:31:50.909Z,5.00
2018-07-15T12:32:50.861Z,5.30
2018-07-15T12:33:50.802Z,5.40
2018-07-15T12:34:50.747Z,5.50
2018-07-15T12:35:50.689Z,5.10
2018-07-15T12:36:50.633Z,4.60
2018-07-15T12:37:50.580Z,4.60
2018-07-15T12:38:50.525Z,5.40
2018-07-15T12:39:50.470Z,4.90
2018-07-15T12:40:50.423Z,6.50
2018-07-15T12:41:50.360Z,6.10
2018-07-15T12:42:50.302Z,6.20
2018-07-15T12:43:50.247Z,5.00
2018-07-15T12:44:50.191Z,5.10
2018-07-15T12:45:50.136Z,5.30
2018-07-15T12:46:50.081Z,5.40
2018-07-15T12:47:50.028Z,5.00
2018-07-15T12:48:49.969Z,5.40
2018-07-15T12:49:49.915Z,5.80
2018-07-15T12:50:49.860Z,5.40
2018-07-15T12:51:49.807Z,5.10
2018-07-15T12:52:49.749Z,5.20
2018-07-15T12:53:49.695Z,5.10
2018-07-15T12:54:49.643Z,4.60
2018-07-15T12:55:49.587Z,4.60
2018-07-15T12:56:49.526Z,4.20
2018-07-15T12:57:49.474Z,4.60
2018-07-15T12:58:49.415Z,4.00
2018-07-15T12:59:49.357Z,4.70
2018-07-15T13:00:49.304Z,6.00
2018-07-15T13:01:49.246Z,5.00
2018-07-15T13:02:49.194Z,5.40
2018-07-15T13:03:49.140Z,4.00
2018-07-15T13:04:49.079Z,6.90
2018-07-15T13:05:49.026Z,4.60
2018-07-15T13:06:48.970Z,4.20